sensor_id;sensor_type;location;lat;lon;timestamp;temperature;humidity
16515;DHT22;8370;52.556;7.970;2022-12-07T00:01:17;5.00;99.90
16515;DHT22;8370;52.556;7.970;2022-12-07T00:03:44;4.90;99.90
16515;DHT22;8370;52.556;7.970;2022-12-07T00:06:12;4.90;99.90
16515;DHT22;8370;52.556;7.970;2022-12-07T00:08:38;4.80;99.90
16515;DHT22;8370;52.556;7.970;2022-12-07T00:11:05;4.80;99.90
16515;DHT22;8370;52.556;7.970;2022-12-07T00:13:32;4.80;99.90
16515;DHT22;8370;52.556;7.970;2022-12-07T00:16:03;4.70;99.90
16515;DHT22;8370;52.556;7.970;2022-12-07T00:18:28;4.70;99.90
16515;DHT22;8370;52.556;7.970;2022-12-07T00:20:59;4.60;99.90
16515;DHT22;8370;52.556;7.970;2022-12-07T00:23:25;4.60;99.90
16515;DHT22;8370;52.556;7.970;2022-12-07T00:25:50;4.50;99.90
16515;DHT22;8370;52.556;7.970;2022-12-07T00:28:16;4.50;99.90
16515;DHT22;8370;52.556;7.970;2022-12-07T00:30:41;4.50;99.90
16515;DHT22;8370;52.556;7.970;2022-12-07T00:33:07;4.40;99.90
16515;DHT22;8370;52.556;7.970;2022-12-07T00:35:32;4.40;99.90
16515;DHT22;8370;52.556;7.970;2022-12-07T00:37:58;4.30;99.90
16515;DHT22;8370;52.556;7.970;2022-12-07T00:40:23;4.30;99.90
16515;DHT22;8370;52.556;7.970;2022-12-07T00:42:49;4.20;99.90
16515;DHT22;8370;52.556;7.970;2022-12-07T00:45:14;4.20;99.90
16515;DHT22;8370;52.556;7.970;2022-12-07T00:47:41;4.10;99.90
16515;DHT22;8370;52.556;7.970;2022-12-07T00:50:06;4.10;99.90
16515;DHT22;8370;52.556;7.970;2022-12-07T00:52:32;4.10;99.90
16515;DHT22;8370;52.556;7.970;2022-12-07T00:54:58;4.00;99.90
16515;DHT22;8370;52.556;7.970;2022-12-07T00:57:23;4.10;99.90
16515;DHT22;8370;52.556;7.970;2022-12-07T00:59:49;4.00;99.90
16515;DHT22;8370;52.556;7.970;2022-12-07T01:02:14;4.00;99.90
16515;DHT22;8370;52.556;7.970;2022-12-07T01:04:40;4.00;99.90
16515;DHT22;8370;52.556;7.970;2022-12-07T01:07:05;4.00;99.90
16515;DHT22;8370;52.556;7.970;2022-12-07T01:09:31;4.00;99.90
16515;DHT22;8370;52.556;7.970;2022-12-07T01:11:56;3.90;99.90
16515;DHT22;8370;52.556;7.970;2022-12-07T01:14:22;3.90;99.90
16515;DHT22;8370;52.556;7.970;2022-12-07T01:16:47;3.90;99.90
16515;DHT22;8370;52.556;7.970;2022-12-07T01:19:13;3.90;99.90
16515;DHT22;8370;52.556;7.970;2022-12-07T01:21:39;3.90;99.90
16515;DHT22;8370;52.556;7.970;2022-12-07T01:24:07;3.80;99.90
16515;DHT22;8370;52.556;7.970;2022-12-07T01:26:33;3.80;99.90
16515;DHT22;8370;52.556;7.970;2022-12-07T01:28:58;3.70;99.90
16515;DHT22;8370;52.556;7.970;2022-12-07T01:31:26;3.80;99.90
16515;DHT22;8370;52.556;7.970;2022-12-07T01:33:54;3.70;99.90
16515;DHT22;8370;52.556;7.970;2022-12-07T01:36:32;3.70;99.90
16515;DHT22;8370;52.556;7.970;2022-12-07T01:39:00;3.70;99.90
16515;DHT22;8370;52.556;7.970;2022-12-07T01:41:29;3.70;99.90
16515;DHT22;8370;52.556;7.970;2022-12-07T01:52:02;3.60;99.90
16515;DHT22;8370;52.556;7.970;2022-12-07T01:54:29;3.60;99.90
16515;DHT22;8370;52.556;7.970;2022-12-07T01:56:56;3.60;99.90
16515;DHT22;8370;52.556;7.970;2022-12-07T01:59:24;3.60;99.90
16515;DHT22;8370;52.556;7.970;2022-12-07T02:01:52;3.50;99.90
16515;DHT22;8370;52.556;7.970;2022-12-07T02:04:18;3.60;99.90
16515;DHT22;8370;52.556;7.970;2022-12-07T02:06:44;3.50;99.90
16515;DHT22;8370;52.556;7.970;2022-12-07T02:09:11;3.60;99.90
16515;DHT22;8370;52.556;7.970;2022-12-07T02:11:37;3.60;99.90
16515;DHT22;8370;52.556;7.970;2022-12-07T02:14:03;3.60;99.90
16515;DHT22;8370;52.556;7.970;2022-12-07T02:23:04;3.60;99.90
16515;DHT22;8370;52.556;7.970;2022-12-07T02:25:21;3.60;99.90
16515;DHT22;8370;52.556;7.970;2022-12-07T02:27:58;3.60;99.90
16515;DHT22;8370;52.556;7.970;2022-12-07T02:30:33;3.60;99.90
16515;DHT22;8370;52.556;7.970;2022-12-07T02:33:14;3.60;99.90
16515;DHT22;8370;52.556;7.970;2022-12-07T02:38:17;3.60;99.90
16515;DHT22;8370;52.556;7.970;2022-12-07T02:40:48;3.60;99.90
16515;DHT22;8370;52.556;7.970;2022-12-07T02:43:32;3.60;99.90
16515;DHT22;8370;52.556;7.970;2022-12-07T02:46:03;3.60;99.90
16515;DHT22;8370;52.556;7.970;2022-12-07T02:48:31;3.70;99.90
16515;DHT22;8370;52.556;7.970;2022-12-07T02:50:58;3.70;99.90
16515;DHT22;8370;52.556;7.970;2022-12-07T02:53:41;3.70;99.90
16515;DHT22;8370;52.556;7.970;2022-12-07T03:01:53;3.80;99.90
16515;DHT22;8370;52.556;7.970;2022-12-07T03:10:21;3.90;99.90
16515;DHT22;8370;52.556;7.970;2022-12-07T03:13:10;3.90;99.90
16515;DHT22;8370;52.556;7.970;2022-12-07T03:18:31;3.90;99.90
16515;DHT22;8370;52.556;7.970;2022-12-07T03:21:08;3.90;99.90
16515;DHT22;8370;52.556;7.970;2022-12-07T03:23:35;3.80;99.90
16515;DHT22;8370;52.556;7.970;2022-12-07T03:26:04;3.80;99.90
16515;DHT22;8370;52.556;7.970;2022-12-07T03:28:38;3.70;99.90
16515;DHT22;8370;52.556;7.970;2022-12-07T03:31:19;3.70;99.90
16515;DHT22;8370;52.556;7.970;2022-12-07T03:34:19;3.70;99.90
16515;DHT22;8370;52.556;7.970;2022-12-07T03:36:52;3.70;99.90
16515;DHT22;8370;52.556;7.970;2022-12-07T03:41:52;3.60;99.90
16515;DHT22;8370;52.556;7.970;2022-12-07T03:44:20;3.60;99.90
16515;DHT22;8370;52.556;7.970;2022-12-07T03:57:24;3.60;99.90
16515;DHT22;8370;52.556;7.970;2022-12-07T03:59:51;3.60;99.90
16515;DHT22;8370;52.556;7.970;2022-12-07T04:02:17;3.60;99.90
16515;DHT22;8370;52.556;7.970;2022-12-07T04:04:43;3.70;99.90
16515;DHT22;8370;52.556;7.970;2022-12-07T04:07:09;3.70;99.90
16515;DHT22;8370;52.556;7.970;2022-12-07T04:09:35;3.70;99.90
16515;DHT22;8370;52.556;7.970;2022-12-07T04:12:00;3.70;99.90
16515;DHT22;8370;52.556;7.970;2022-12-07T04:14:26;3.70;99.90
16515;DHT22;8370;52.556;7.970;2022-12-07T04:16:54;3.70;99.90
16515;DHT22;8370;52.556;7.970;2022-12-07T04:19:27;3.70;99.90
16515;DHT22;8370;52.556;7.970;2022-12-07T04:21:55;3.70;99.90
16515;DHT22;8370;52.556;7.970;2022-12-07T04:24:21;3.70;99.90
16515;DHT22;8370;52.556;7.970;2022-12-07T04:26:46;3.70;99.90
16515;DHT22;8370;52.556;7.970;2022-12-07T04:29:13;3.70;99.90
16515;DHT22;8370;52.556;7.970;2022-12-07T04:31:38;3.70;99.90
16515;DHT22;8370;52.556;7.970;2022-12-07T04:34:04;3.80;99.90
16515;DHT22;8370;52.556;7.970;2022-12-07T04:36:31;3.80;99.90
16515;DHT22;8370;52.556;7.970;2022-12-07T04:38:57;3.80;99.90
16515;DHT22;8370;52.556;7.970;2022-12-07T04:41:23;3.80;99.90
16515;DHT22;8370;52.556;7.970;2022-12-07T04:43:56;3.80;99.90
16515;DHT22;8370;52.556;7.970;2022-12-07T04:46:23;3.70;99.90
16515;DHT22;8370;52.556;7.970;2022-12-07T04:48:49;3.70;99.90
16515;DHT22;8370;52.556;7.970;2022-12-07T04:51:18;3.70;99.90
16515;DHT22;8370;52.556;7.970;2022-12-07T04:53:44;3.60;99.90
16515;DHT22;8370;52.556;7.970;2022-12-07T04:56:09;3.60;99.90
16515;DHT22;8370;52.556;7.970;2022-12-07T04:58:35;3.60;99.90
16515;DHT22;8370;52.556;7.970;2022-12-07T05:01:00;3.60;99.90
16515;DHT22;8370;52.556;7.970;2022-12-07T05:03:26;3.60;99.90
16515;DHT22;8370;52.556;7.970;2022-12-07T05:05:51;3.60;99.90
16515;DHT22;8370;52.556;7.970;2022-12-07T05:08:17;3.60;99.90
16515;DHT22;8370;52.556;7.970;2022-12-07T05:10:43;3.50;99.90
16515;DHT22;8370;52.556;7.970;2022-12-07T05:13:08;3.50;99.90
16515;DHT22;8370;52.556;7.970;2022-12-07T05:15:34;3.40;99.90
16515;DHT22;8370;52.556;7.970;2022-12-07T05:17:59;3.40;99.90
16515;DHT22;8370;52.556;7.970;2022-12-07T05:20:25;3.40;99.90
16515;DHT22;8370;52.556;7.970;2022-12-07T05:22:50;3.30;99.90
16515;DHT22;8370;52.556;7.970;2022-12-07T05:25:16;3.30;99.90
16515;DHT22;8370;52.556;7.970;2022-12-07T05:27:41;3.30;99.90
16515;DHT22;8370;52.556;7.970;2022-12-07T05:30:07;3.20;99.90
16515;DHT22;8370;52.556;7.970;2022-12-07T05:32:33;3.20;99.90
16515;DHT22;8370;52.556;7.970;2022-12-07T05:34:59;3.10;99.90
16515;DHT22;8370;52.556;7.970;2022-12-07T05:37:24;3.10;99.90
16515;DHT22;8370;52.556;7.970;2022-12-07T05:39:50;3.10;99.90
16515;DHT22;8370;52.556;7.970;2022-12-07T05:42:15;3.10;99.90
16515;DHT22;8370;52.556;7.970;2022-12-07T05:44:43;3.10;99.90
16515;DHT22;8370;52.556;7.970;2022-12-07T05:47:10;3.10;99.90
16515;DHT22;8370;52.556;7.970;2022-12-07T05:49:36;3.10;99.90
16515;DHT22;8370;52.556;7.970;2022-12-07T05:52:02;3.10;99.90
16515;DHT22;8370;52.556;7.970;2022-12-07T05:54:28;3.10;99.90
16515;DHT22;8370;52.556;7.970;2022-12-07T05:56:54;3.10;99.90
16515;DHT22;8370;52.556;7.970;2022-12-07T05:59:20;3.10;99.90
16515;DHT22;8370;52.556;7.970;2022-12-07T06:01:53;3.00;99.90
16515;DHT22;8370;52.556;7.970;2022-12-07T06:04:19;3.00;99.90
16515;DHT22;8370;52.556;7.970;2022-12-07T06:06:45;3.00;99.90
16515;DHT22;8370;52.556;7.970;2022-12-07T06:09:11;3.00;99.90
16515;DHT22;8370;52.556;7.970;2022-12-07T06:11:38;3.00;99.90
16515;DHT22;8370;52.556;7.970;2022-12-07T06:14:22;3.00;99.90
16515;DHT22;8370;52.556;7.970;2022-12-07T06:16:48;3.00;99.90
16515;DHT22;8370;52.556;7.970;2022-12-07T06:19:13;3.00;99.90
16515;DHT22;8370;52.556;7.970;2022-12-07T06:21:39;3.00;99.90
16515;DHT22;8370;52.556;7.970;2022-12-07T06:24:05;3.00;99.90
16515;DHT22;8370;52.556;7.970;2022-12-07T06:26:31;2.90;99.90
16515;DHT22;8370;52.556;7.970;2022-12-07T06:28:56;2.90;99.90
16515;DHT22;8370;52.556;7.970;2022-12-07T06:31:22;2.90;99.90
16515;DHT22;8370;52.556;7.970;2022-12-07T06:33:47;2.90;99.90
16515;DHT22;8370;52.556;7.970;2022-12-07T06:36:13;2.90;99.90
16515;DHT22;8370;52.556;7.970;2022-12-07T06:38:39;2.90;99.90
16515;DHT22;8370;52.556;7.970;2022-12-07T06:41:04;2.90;99.90
16515;DHT22;8370;52.556;7.970;2022-12-07T06:43:30;2.90;99.90
16515;DHT22;8370;52.556;7.970;2022-12-07T06:45:55;2.90;99.90
16515;DHT22;8370;52.556;7.970;2022-12-07T06:48:21;2.90;99.90
16515;DHT22;8370;52.556;7.970;2022-12-07T06:50:47;2.90;99.90
16515;DHT22;8370;52.556;7.970;2022-12-07T06:53:13;2.90;99.90
16515;DHT22;8370;52.556;7.970;2022-12-07T06:55:39;2.90;99.90
16515;DHT22;8370;52.556;7.970;2022-12-07T06:58:04;2.90;99.90
16515;DHT22;8370;52.556;7.970;2022-12-07T07:00:30;2.90;99.90
16515;DHT22;8370;52.556;7.970;2022-12-07T07:02:55;2.90;99.90
16515;DHT22;8370;52.556;7.970;2022-12-07T07:05:21;2.90;99.90
16515;DHT22;8370;52.556;7.970;2022-12-07T07:07:48;2.90;99.90
16515;DHT22;8370;52.556;7.970;2022-12-07T07:10:13;2.90;99.90
16515;DHT22;8370;52.556;7.970;2022-12-07T07:12:39;2.90;99.90
16515;DHT22;8370;52.556;7.970;2022-12-07T07:15:05;3.00;99.90
16515;DHT22;8370;52.556;7.970;2022-12-07T07:17:30;3.00;99.90
16515;DHT22;8370;52.556;7.970;2022-12-07T07:19:56;2.90;99.90
16515;DHT22;8370;52.556;7.970;2022-12-07T07:22:21;2.90;99.90
16515;DHT22;8370;52.556;7.970;2022-12-07T07:24:47;3.00;99.90
16515;DHT22;8370;52.556;7.970;2022-12-07T07:27:12;3.00;99.90
16515;DHT22;8370;52.556;7.970;2022-12-07T07:29:38;3.00;99.90
16515;DHT22;8370;52.556;7.970;2022-12-07T07:32:04;3.00;99.90
16515;DHT22;8370;52.556;7.970;2022-12-07T07:34:29;3.10;99.90
16515;DHT22;8370;52.556;7.970;2022-12-07T07:36:55;3.10;99.90
16515;DHT22;8370;52.556;7.970;2022-12-07T07:39:20;3.10;99.90
16515;DHT22;8370;52.556;7.970;2022-12-07T07:41:46;3.10;99.90
16515;DHT22;8370;52.556;7.970;2022-12-07T07:44:12;3.10;99.90
16515;DHT22;8370;52.556;7.970;2022-12-07T07:46:37;3.20;99.90
16515;DHT22;8370;52.556;7.970;2022-12-07T07:49:03;3.20;99.90
16515;DHT22;8370;52.556;7.970;2022-12-07T07:51:28;3.20;99.90
16515;DHT22;8370;52.556;7.970;2022-12-07T07:53:54;3.20;99.90
16515;DHT22;8370;52.556;7.970;2022-12-07T07:56:20;3.20;99.90
16515;DHT22;8370;52.556;7.970;2022-12-07T07:58:45;3.20;99.90
16515;DHT22;8370;52.556;7.970;2022-12-07T08:01:11;3.20;99.90
16515;DHT22;8370;52.556;7.970;2022-12-07T08:03:36;3.20;99.90
16515;DHT22;8370;52.556;7.970;2022-12-07T08:06:03;3.20;99.90
16515;DHT22;8370;52.556;7.970;2022-12-07T08:08:29;3.20;99.90
16515;DHT22;8370;52.556;7.970;2022-12-07T08:10:54;3.30;99.90
16515;DHT22;8370;52.556;7.970;2022-12-07T08:13:20;3.30;99.90
16515;DHT22;8370;52.556;7.970;2022-12-07T08:15:47;3.30;99.90
16515;DHT22;8370;52.556;7.970;2022-12-07T08:18:14;3.30;99.90
16515;DHT22;8370;52.556;7.970;2022-12-07T08:20:40;3.30;99.90
16515;DHT22;8370;52.556;7.970;2022-12-07T08:23:07;3.30;99.90
16515;DHT22;8370;52.556;7.970;2022-12-07T08:25:33;3.30;99.90
16515;DHT22;8370;52.556;7.970;2022-12-07T08:27:59;3.30;99.90
16515;DHT22;8370;52.556;7.970;2022-12-07T08:30:26;3.30;99.90
16515;DHT22;8370;52.556;7.970;2022-12-07T08:32:51;3.30;99.90
16515;DHT22;8370;52.556;7.970;2022-12-07T08:35:17;3.40;99.90
16515;DHT22;8370;52.556;7.970;2022-12-07T08:37:43;3.40;99.90
16515;DHT22;8370;52.556;7.970;2022-12-07T08:40:10;3.50;99.90
16515;DHT22;8370;52.556;7.970;2022-12-07T08:42:35;3.50;99.90
16515;DHT22;8370;52.556;7.970;2022-12-07T08:45:10;3.50;99.90
16515;DHT22;8370;52.556;7.970;2022-12-07T08:47:39;3.60;99.90
16515;DHT22;8370;52.556;7.970;2022-12-07T08:50:07;3.50;99.90
16515;DHT22;8370;52.556;7.970;2022-12-07T08:52:34;3.60;99.90
16515;DHT22;8370;52.556;7.970;2022-12-07T08:55:02;3.60;99.90
16515;DHT22;8370;52.556;7.970;2022-12-07T08:57:29;3.60;99.90
16515;DHT22;8370;52.556;7.970;2022-12-07T08:59:54;3.60;99.90
16515;DHT22;8370;52.556;7.970;2022-12-07T09:02:20;3.60;99.90
16515;DHT22;8370;52.556;7.970;2022-12-07T09:04:46;3.60;99.90
16515;DHT22;8370;52.556;7.970;2022-12-07T09:07:12;3.60;99.90
16515;DHT22;8370;52.556;7.970;2022-12-07T09:09:37;3.60;99.90
16515;DHT22;8370;52.556;7.970;2022-12-07T09:12:03;3.60;99.90
16515;DHT22;8370;52.556;7.970;2022-12-07T09:14:29;3.60;99.90
16515;DHT22;8370;52.556;7.970;2022-12-07T09:16:55;3.50;99.90
16515;DHT22;8370;52.556;7.970;2022-12-07T09:19:20;3.50;99.90
16515;DHT22;8370;52.556;7.970;2022-12-07T09:21:46;3.60;99.90
16515;DHT22;8370;52.556;7.970;2022-12-07T09:24:12;3.70;99.90
16515;DHT22;8370;52.556;7.970;2022-12-07T09:26:38;3.70;99.90
16515;DHT22;8370;52.556;7.970;2022-12-07T09:29:05;3.80;99.90
16515;DHT22;8370;52.556;7.970;2022-12-07T09:31:31;3.90;99.90
16515;DHT22;8370;52.556;7.970;2022-12-07T09:33:58;3.90;99.90
16515;DHT22;8370;52.556;7.970;2022-12-07T09:36:25;3.90;99.90
16515;DHT22;8370;52.556;7.970;2022-12-07T09:38:51;3.90;99.90
16515;DHT22;8370;52.556;7.970;2022-12-07T09:41:16;3.90;99.90
16515;DHT22;8370;52.556;7.970;2022-12-07T09:43:42;4.00;99.90
16515;DHT22;8370;52.556;7.970;2022-12-07T09:46:15;4.00;99.90
16515;DHT22;8370;52.556;7.970;2022-12-07T09:48:43;3.90;99.90
16515;DHT22;8370;52.556;7.970;2022-12-07T09:51:15;4.00;99.90
16515;DHT22;8370;52.556;7.970;2022-12-07T09:53:41;4.10;99.90
16515;DHT22;8370;52.556;7.970;2022-12-07T09:56:14;4.10;99.90
16515;DHT22;8370;52.556;7.970;2022-12-07T09:58:40;4.30;99.90
16515;DHT22;8370;52.556;7.970;2022-12-07T10:01:18;4.30;99.90
16515;DHT22;8370;52.556;7.970;2022-12-07T10:03:50;4.50;99.90
16515;DHT22;8370;52.556;7.970;2022-12-07T10:06:17;4.60;99.90
16515;DHT22;8370;52.556;7.970;2022-12-07T10:08:43;4.60;99.90
16515;DHT22;8370;52.556;7.970;2022-12-07T10:11:10;4.70;99.90
16515;DHT22;8370;52.556;7.970;2022-12-07T10:13:40;4.70;99.90
16515;DHT22;8370;52.556;7.970;2022-12-07T10:16:26;4.70;99.90
16515;DHT22;8370;52.556;7.970;2022-12-07T10:18:53;4.70;99.90
16515;DHT22;8370;52.556;7.970;2022-12-07T10:21:28;4.70;99.90
16515;DHT22;8370;52.556;7.970;2022-12-07T10:24:14;4.70;99.90
16515;DHT22;8370;52.556;7.970;2022-12-07T10:29:33;4.70;99.90
16515;DHT22;8370;52.556;7.970;2022-12-07T10:32:05;4.80;99.90
16515;DHT22;8370;52.556;7.970;2022-12-07T10:34:35;4.80;99.90
16515;DHT22;8370;52.556;7.970;2022-12-07T10:37:14;4.90;99.90
16515;DHT22;8370;52.556;7.970;2022-12-07T10:42:21;5.00;99.90
16515;DHT22;8370;52.556;7.970;2022-12-07T10:44:48;4.90;99.90
16515;DHT22;8370;52.556;7.970;2022-12-07T10:56:25;4.80;99.90
16515;DHT22;8370;52.556;7.970;2022-12-07T10:59:29;4.80;99.90
16515;DHT22;8370;52.556;7.970;2022-12-07T11:02:25;5.00;99.90
16515;DHT22;8370;52.556;7.970;2022-12-07T11:07:42;5.30;99.90
16515;DHT22;8370;52.556;7.970;2022-12-07T11:11:12;5.30;99.90
16515;DHT22;8370;52.556;7.970;2022-12-07T11:13:28;5.20;99.90
16515;DHT22;8370;52.556;7.970;2022-12-07T11:25:17;5.20;99.90
16515;DHT22;8370;52.556;7.970;2022-12-07T11:27:48;5.40;99.90
16515;DHT22;8370;52.556;7.970;2022-12-07T11:30:24;5.70;99.90
16515;DHT22;8370;52.556;7.970;2022-12-07T11:33:10;5.90;99.90
16515;DHT22;8370;52.556;7.970;2022-12-07T11:38:12;6.10;99.90
16515;DHT22;8370;52.556;7.970;2022-12-07T11:40:40;6.30;99.90
16515;DHT22;8370;52.556;7.970;2022-12-07T11:43:23;6.30;99.90
16515;DHT22;8370;52.556;7.970;2022-12-07T11:46:04;6.30;99.90
16515;DHT22;8370;52.556;7.970;2022-12-07T11:48:45;6.40;99.90
16515;DHT22;8370;52.556;7.970;2022-12-07T11:51:12;6.60;99.90
16515;DHT22;8370;52.556;7.970;2022-12-07T11:53:57;6.80;99.90
16515;DHT22;8370;52.556;7.970;2022-12-07T11:56:26;6.80;99.90
16515;DHT22;8370;52.556;7.970;2022-12-07T12:01:37;6.50;99.90
16515;DHT22;8370;52.556;7.970;2022-12-07T12:06:37;6.30;99.90
16515;DHT22;8370;52.556;7.970;2022-12-07T12:20:29;5.90;99.90
16515;DHT22;8370;52.556;7.970;2022-12-07T12:23:01;5.90;99.90
16515;DHT22;8370;52.556;7.970;2022-12-07T12:25:42;6.00;99.90
16515;DHT22;8370;52.556;7.970;2022-12-07T12:33:50;6.00;99.90
16515;DHT22;8370;52.556;7.970;2022-12-07T12:46:50;6.00;99.90
16515;DHT22;8370;52.556;7.970;2022-12-07T12:51:49;5.90;99.90
16515;DHT22;8370;52.556;7.970;2022-12-07T12:57:44;6.30;99.90
16515;DHT22;8370;52.556;7.970;2022-12-07T13:02:35;6.50;99.90
16515;DHT22;8370;52.556;7.970;2022-12-07T13:21:02;6.10;99.90
16515;DHT22;8370;52.556;7.970;2022-12-07T13:26:04;6.20;99.90
16515;DHT22;8370;52.556;7.970;2022-12-07T13:28:39;6.20;99.90
16515;DHT22;8370;52.556;7.970;2022-12-07T13:31:11;6.20;99.90
16515;DHT22;8370;52.556;7.970;2022-12-07T13:33:38;6.20;99.90
16515;DHT22;8370;52.556;7.970;2022-12-07T13:36:04;6.10;99.90
16515;DHT22;8370;52.556;7.970;2022-12-07T13:38:34;6.10;99.90
16515;DHT22;8370;52.556;7.970;2022-12-07T13:41:14;6.10;99.90
16515;DHT22;8370;52.556;7.970;2022-12-07T13:43:49;6.00;99.90
16515;DHT22;8370;52.556;7.970;2022-12-07T13:46:15;5.90;99.90
16515;DHT22;8370;52.556;7.970;2022-12-07T13:48:50;5.90;99.90
16515;DHT22;8370;52.556;7.970;2022-12-07T13:53:48;5.80;99.90
16515;DHT22;8370;52.556;7.970;2022-12-07T13:56:14;5.80;99.90
16515;DHT22;8370;52.556;7.970;2022-12-07T13:58:41;5.80;99.90
16515;DHT22;8370;52.556;7.970;2022-12-07T14:01:07;5.80;99.90
16515;DHT22;8370;52.556;7.970;2022-12-07T14:03:34;5.70;99.90
16515;DHT22;8370;52.556;7.970;2022-12-07T14:06:21;5.70;99.90
16515;DHT22;8370;52.556;7.970;2022-12-07T14:08:47;5.70;99.90
16515;DHT22;8370;52.556;7.970;2022-12-07T14:11:17;5.70;99.90
16515;DHT22;8370;52.556;7.970;2022-12-07T14:13:58;5.60;99.90
16515;DHT22;8370;52.556;7.970;2022-12-07T14:16:28;5.60;99.90
16515;DHT22;8370;52.556;7.970;2022-12-07T14:18:55;5.60;99.90
16515;DHT22;8370;52.556;7.970;2022-12-07T14:21:25;5.50;99.90
16515;DHT22;8370;52.556;7.970;2022-12-07T14:24:18;5.50;99.90
16515;DHT22;8370;52.556;7.970;2022-12-07T14:26:49;5.50;99.90
16515;DHT22;8370;52.556;7.970;2022-12-07T14:31:57;5.50;99.90
16515;DHT22;8370;52.556;7.970;2022-12-07T14:34:24;5.40;99.90
16515;DHT22;8370;52.556;7.970;2022-12-07T14:36:49;5.40;99.90
16515;DHT22;8370;52.556;7.970;2022-12-07T14:39:15;5.30;99.90
16515;DHT22;8370;52.556;7.970;2022-12-07T14:41:41;5.30;99.90
16515;DHT22;8370;52.556;7.970;2022-12-07T14:44:16;5.30;99.90
16515;DHT22;8370;52.556;7.970;2022-12-07T14:46:41;5.20;99.90
16515;DHT22;8370;52.556;7.970;2022-12-07T14:49:07;5.20;99.90
16515;DHT22;8370;52.556;7.970;2022-12-07T14:51:33;5.10;99.90
16515;DHT22;8370;52.556;7.970;2022-12-07T14:54:01;5.10;99.90
16515;DHT22;8370;52.556;7.970;2022-12-07T14:56:26;5.10;99.90
16515;DHT22;8370;52.556;7.970;2022-12-07T14:58:53;5.00;99.90
16515;DHT22;8370;52.556;7.970;2022-12-07T15:01:18;5.00;99.90
16515;DHT22;8370;52.556;7.970;2022-12-07T15:03:44;4.90;99.90
16515;DHT22;8370;52.556;7.970;2022-12-07T15:06:14;5.00;99.90
16515;DHT22;8370;52.556;7.970;2022-12-07T15:08:39;4.90;99.90
16515;DHT22;8370;52.556;7.970;2022-12-07T15:11:05;4.80;99.90
16515;DHT22;8370;52.556;7.970;2022-12-07T15:13:31;4.80;99.90
16515;DHT22;8370;52.556;7.970;2022-12-07T15:16:19;4.80;99.90
16515;DHT22;8370;52.556;7.970;2022-12-07T15:18:46;4.80;99.90
16515;DHT22;8370;52.556;7.970;2022-12-07T15:21:15;4.80;99.90
16515;DHT22;8370;52.556;7.970;2022-12-07T15:23:41;4.80;99.90
16515;DHT22;8370;52.556;7.970;2022-12-07T15:26:07;4.70;99.90
16515;DHT22;8370;52.556;7.970;2022-12-07T15:28:33;4.70;99.90
16515;DHT22;8370;52.556;7.970;2022-12-07T15:30:59;4.70;99.90
16515;DHT22;8370;52.556;7.970;2022-12-07T15:33:24;4.60;99.90
16515;DHT22;8370;52.556;7.970;2022-12-07T15:35:50;4.60;99.90
16515;DHT22;8370;52.556;7.970;2022-12-07T15:38:15;4.60;99.90
16515;DHT22;8370;52.556;7.970;2022-12-07T15:40:41;4.50;99.90
16515;DHT22;8370;52.556;7.970;2022-12-07T15:43:09;4.50;99.90
16515;DHT22;8370;52.556;7.970;2022-12-07T15:45:55;4.50;99.90
16515;DHT22;8370;52.556;7.970;2022-12-07T15:48:20;4.50;99.90
16515;DHT22;8370;52.556;7.970;2022-12-07T15:50:46;4.50;99.90
16515;DHT22;8370;52.556;7.970;2022-12-07T15:53:11;4.40;99.90
16515;DHT22;8370;52.556;7.970;2022-12-07T15:55:39;4.40;99.90
16515;DHT22;8370;52.556;7.970;2022-12-07T15:58:05;4.40;99.90
16515;DHT22;8370;52.556;7.970;2022-12-07T16:00:31;4.30;99.90
16515;DHT22;8370;52.556;7.970;2022-12-07T16:02:56;4.30;99.90
16515;DHT22;8370;52.556;7.970;2022-12-07T16:05:22;4.30;99.90
16515;DHT22;8370;52.556;7.970;2022-12-07T16:07:47;4.20;99.90
16515;DHT22;8370;52.556;7.970;2022-12-07T16:10:13;4.20;99.90
16515;DHT22;8370;52.556;7.970;2022-12-07T16:12:39;4.20;99.90
16515;DHT22;8370;52.556;7.970;2022-12-07T16:15:05;4.10;99.90
16515;DHT22;8370;52.556;7.970;2022-12-07T16:17:31;4.10;99.90
16515;DHT22;8370;52.556;7.970;2022-12-07T16:19:57;4.10;99.90
16515;DHT22;8370;52.556;7.970;2022-12-07T16:22:23;4.00;99.90
16515;DHT22;8370;52.556;7.970;2022-12-07T16:24:49;4.00;99.90
16515;DHT22;8370;52.556;7.970;2022-12-07T16:27:14;4.00;99.90
16515;DHT22;8370;52.556;7.970;2022-12-07T16:29:40;4.00;99.90
16515;DHT22;8370;52.556;7.970;2022-12-07T16:32:05;3.90;99.90
16515;DHT22;8370;52.556;7.970;2022-12-07T16:34:31;3.90;99.90
16515;DHT22;8370;52.556;7.970;2022-12-07T16:36:56;3.90;99.90
16515;DHT22;8370;52.556;7.970;2022-12-07T16:39:22;3.90;99.90
16515;DHT22;8370;52.556;7.970;2022-12-07T16:41:48;3.90;99.90
16515;DHT22;8370;52.556;7.970;2022-12-07T16:44:14;3.80;99.90
16515;DHT22;8370;52.556;7.970;2022-12-07T16:46:40;3.80;99.90
16515;DHT22;8370;52.556;7.970;2022-12-07T16:49:06;3.80;99.90
16515;DHT22;8370;52.556;7.970;2022-12-07T16:51:32;3.80;99.90
16515;DHT22;8370;52.556;7.970;2022-12-07T16:54:00;3.70;99.90
16515;DHT22;8370;52.556;7.970;2022-12-07T16:56:26;3.70;99.90
16515;DHT22;8370;52.556;7.970;2022-12-07T16:58:54;3.70;99.90
16515;DHT22;8370;52.556;7.970;2022-12-07T17:01:20;3.60;99.90
16515;DHT22;8370;52.556;7.970;2022-12-07T17:03:49;3.60;99.90
16515;DHT22;8370;52.556;7.970;2022-12-07T17:06:26;3.60;99.90
16515;DHT22;8370;52.556;7.970;2022-12-07T17:08:53;3.60;99.90
16515;DHT22;8370;52.556;7.970;2022-12-07T17:11:27;3.60;99.90
16515;DHT22;8370;52.556;7.970;2022-12-07T17:13:53;3.60;99.90
16515;DHT22;8370;52.556;7.970;2022-12-07T17:16:37;3.60;99.90
16515;DHT22;8370;52.556;7.970;2022-12-07T17:19:04;3.60;99.90
16515;DHT22;8370;52.556;7.970;2022-12-07T17:21:31;3.60;99.90
16515;DHT22;8370;52.556;7.970;2022-12-07T17:24:02;3.60;99.90
16515;DHT22;8370;52.556;7.970;2022-12-07T17:26:28;3.60;99.90
16515;DHT22;8370;52.556;7.970;2022-12-07T17:28:54;3.60;99.90
16515;DHT22;8370;52.556;7.970;2022-12-07T17:31:22;3.50;99.90
16515;DHT22;8370;52.556;7.970;2022-12-07T17:33:48;3.50;99.90
16515;DHT22;8370;52.556;7.970;2022-12-07T17:36:16;3.50;99.90
16515;DHT22;8370;52.556;7.970;2022-12-07T17:38:42;3.50;99.90
16515;DHT22;8370;52.556;7.970;2022-12-07T17:41:13;3.50;99.90
16515;DHT22;8370;52.556;7.970;2022-12-07T17:43:59;3.50;99.90
16515;DHT22;8370;52.556;7.970;2022-12-07T17:46:25;3.50;99.90
16515;DHT22;8370;52.556;7.970;2022-12-07T17:48:53;3.50;99.90
16515;DHT22;8370;52.556;7.970;2022-12-07T17:51:19;3.50;99.90
16515;DHT22;8370;52.556;7.970;2022-12-07T17:54:03;3.50;99.90
16515;DHT22;8370;52.556;7.970;2022-12-07T17:56:29;3.50;99.90
16515;DHT22;8370;52.556;7.970;2022-12-07T17:58:54;3.50;99.90
16515;DHT22;8370;52.556;7.970;2022-12-07T18:01:20;3.50;99.90
16515;DHT22;8370;52.556;7.970;2022-12-07T18:03:45;3.50;99.90
16515;DHT22;8370;52.556;7.970;2022-12-07T18:06:11;3.60;99.90
16515;DHT22;8370;52.556;7.970;2022-12-07T18:08:36;3.60;99.90
16515;DHT22;8370;52.556;7.970;2022-12-07T18:11:04;3.60;99.90
16515;DHT22;8370;52.556;7.970;2022-12-07T18:13:31;3.60;99.90
16515;DHT22;8370;52.556;7.970;2022-12-07T18:16:20;3.60;99.90
16515;DHT22;8370;52.556;7.970;2022-12-07T18:18:47;3.60;99.90
16515;DHT22;8370;52.556;7.970;2022-12-07T18:21:16;3.60;99.90
16515;DHT22;8370;52.556;7.970;2022-12-07T18:23:46;3.60;99.90
16515;DHT22;8370;52.556;7.970;2022-12-07T18:26:13;3.60;99.90
16515;DHT22;8370;52.556;7.970;2022-12-07T18:28:39;3.60;99.90